Leetonia, Ohio
Current Conditions -  °F | °C
As of 9:51 PM on Thursday 27 Nov 2014 (Local Time) from KYNG Reporting Station
Light Snow Light Snow  
Wind Chill: 18°   Ceiling: 700
Heat Index: 28°   Visibility: 3mi
Dew Point: 26°   Wind: 12mph
Humidity: 92%   Direction: 270°W
Pressure: 30.18"   Gusts: NA
Location:  40.88°N, 80.76°W
Report Text: KYNG 280251Z 27010KT 3SM -SN BR BKN007 BKN017 OVC024 M02/M03 A3018 RMK AO2 SLP233 60012 T10221033 53009
Loading
Personal Weather Stations






























Interactive Weather Map New forecast layout! Learn more

10-Day Weather Forecast

Advertisements
Track Severe Weather on mobile